sensor_id;sensor_type;location;lat;lon;timestamp;P1;durP1;ratioP1;P2;durP2;ratioP2
12591;SDS011;6361;52.120;5.108;2022-10-31T00:00:16;11.73;;;5.53;;
12591;SDS011;6361;52.120;5.108;2022-10-31T00:02:42;13.60;;;5.50;;
12591;SDS011;6361;52.120;5.108;2022-10-31T00:05:07;10.13;;;5.30;;
12591;SDS011;6361;52.120;5.108;2022-10-31T00:07:33;12.90;;;5.60;;
12591;SDS011;6361;52.120;5.108;2022-10-31T00:09:58;11.88;;;6.00;;
12591;SDS011;6361;52.120;5.108;2022-10-31T00:12:24;10.65;;;6.10;;
12591;SDS011;6361;52.120;5.108;2022-10-31T00:14:49;12.52;;;6.18;;
12591;SDS011;6361;52.120;5.108;2022-10-31T00:17:14;13.15;;;5.68;;
12591;SDS011;6361;52.120;5.108;2022-10-31T00:19:40;11.13;;;5.95;;
12591;SDS011;6361;52.120;5.108;2022-10-31T00:22:05;10.65;;;6.28;;
12591;SDS011;6361;52.120;5.108;2022-10-31T00:24:30;12.32;;;5.55;;
12591;SDS011;6361;52.120;5.108;2022-10-31T00:26:56;10.55;;;5.93;;
12591;SDS011;6361;52.120;5.108;2022-10-31T00:29:21;11.98;;;6.15;;
12591;SDS011;6361;52.120;5.108;2022-10-31T00:31:48;13.35;;;5.60;;
12591;SDS011;6361;52.120;5.108;2022-10-31T00:34:13;11.52;;;6.05;;
12591;SDS011;6361;52.120;5.108;2022-10-31T00:36:38;11.10;;;5.95;;
12591;SDS011;6361;52.120;5.108;2022-10-31T00:39:04;10.63;;;6.35;;
12591;SDS011;6361;52.120;5.108;2022-10-31T00:41:29;10.00;;;5.90;;
12591;SDS011;6361;52.120;5.108;2022-10-31T00:43:54;12.57;;;6.18;;
12591;SDS011;6361;52.120;5.108;2022-10-31T00:46:20;12.38;;;6.68;;
12591;SDS011;6361;52.120;5.108;2022-10-31T00:48:45;10.73;;;6.30;;
12591;SDS011;6361;52.120;5.108;2022-10-31T00:51:10;11.52;;;6.03;;
12591;SDS011;6361;52.120;5.108;2022-10-31T00:53:36;13.25;;;6.13;;
12591;SDS011;6361;52.120;5.108;2022-10-31T00:56:01;10.35;;;6.45;;
12591;SDS011;6361;52.120;5.108;2022-10-31T00:58:27;12.13;;;6.93;;
12591;SDS011;6361;52.120;5.108;2022-10-31T01:00:52;13.25;;;6.60;;
12591;SDS011;6361;52.120;5.108;2022-10-31T01:03:21;10.68;;;6.38;;
12591;SDS011;6361;52.120;5.108;2022-10-31T01:08:26;11.18;;;6.50;;
12591;SDS011;6361;52.120;5.108;2022-10-31T01:11:10;11.32;;;6.40;;
12591;SDS011;6361;52.120;5.108;2022-10-31T01:13:40;11.10;;;6.50;;
12591;SDS011;6361;52.120;5.108;2022-10-31T01:16:06;15.95;;;6.85;;
12591;SDS011;6361;52.120;5.108;2022-10-31T01:18:33;11.40;;;6.85;;
12591;SDS011;6361;52.120;5.108;2022-10-31T01:23:30;12.07;;;6.82;;
12591;SDS011;6361;52.120;5.108;2022-10-31T01:26:12;14.52;;;7.22;;
12591;SDS011;6361;52.120;5.108;2022-10-31T01:28:46;13.52;;;7.07;;
12591;SDS011;6361;52.120;5.108;2022-10-31T01:31:16;10.57;;;6.70;;
12591;SDS011;6361;52.120;5.108;2022-10-31T01:33:43;10.23;;;6.10;;
12591;SDS011;6361;52.120;5.108;2022-10-31T01:36:17;16.25;;;6.75;;
12591;SDS011;6361;52.120;5.108;2022-10-31T01:38:51;12.07;;;6.47;;
12591;SDS011;6361;52.120;5.108;2022-10-31T01:41:19;13.00;;;6.45;;
12591;SDS011;6361;52.120;5.108;2022-10-31T01:43:50;11.07;;;6.63;;
12591;SDS011;6361;52.120;5.108;2022-10-31T01:46:20;9.95;;;7.03;;
12591;SDS011;6361;52.120;5.108;2022-10-31T01:48:47;12.55;;;7.05;;
12591;SDS011;6361;52.120;5.108;2022-10-31T01:51:13;11.15;;;6.90;;
12591;SDS011;6361;52.120;5.108;2022-10-31T01:53:40;12.73;;;7.18;;
12591;SDS011;6361;52.120;5.108;2022-10-31T01:56:06;11.00;;;7.13;;
12591;SDS011;6361;52.120;5.108;2022-10-31T01:58:31;11.82;;;7.13;;
12591;SDS011;6361;52.120;5.108;2022-10-31T02:00:58;12.35;;;7.13;;
12591;SDS011;6361;52.120;5.108;2022-10-31T02:03:24;12.95;;;6.90;;
12591;SDS011;6361;52.120;5.108;2022-10-31T02:05:50;13.90;;;6.82;;
12591;SDS011;6361;52.120;5.108;2022-10-31T02:08:20;13.52;;;7.28;;
12591;SDS011;6361;52.120;5.108;2022-10-31T02:10:48;12.27;;;7.13;;
12591;SDS011;6361;52.120;5.108;2022-10-31T02:13:14;12.88;;;7.80;;
12591;SDS011;6361;52.120;5.108;2022-10-31T02:15:40;14.82;;;7.68;;
12591;SDS011;6361;52.120;5.108;2022-10-31T02:18:07;14.05;;;7.82;;
12591;SDS011;6361;52.120;5.108;2022-10-31T02:20:37;12.10;;;7.35;;
12591;SDS011;6361;52.120;5.108;2022-10-31T02:26:07;13.13;;;7.43;;
12591;SDS011;6361;52.120;5.108;2022-10-31T02:36:59;13.95;;;7.60;;
12591;SDS011;6361;52.120;5.108;2022-10-31T02:39:41;12.63;;;6.90;;
12591;SDS011;6361;52.120;5.108;2022-10-31T02:44:59;11.85;;;7.30;;
12591;SDS011;6361;52.120;5.108;2022-10-31T02:47:28;10.10;;;7.00;;
12591;SDS011;6361;52.120;5.108;2022-10-31T02:52:27;12.43;;;7.38;;
12591;SDS011;6361;52.120;5.108;2022-10-31T02:54:53;10.98;;;6.90;;
12591;SDS011;6361;52.120;5.108;2022-10-31T02:57:23;13.40;;;7.95;;
12591;SDS011;6361;52.120;5.108;2022-10-31T02:59:52;11.10;;;7.15;;
12591;SDS011;6361;52.120;5.108;2022-10-31T03:07:39;13.93;;;8.02;;
12591;SDS011;6361;52.120;5.108;2022-10-31T03:15:23;10.55;;;7.88;;
12591;SDS011;6361;52.120;5.108;2022-10-31T03:18:01;13.90;;;8.93;;
12591;SDS011;6361;52.120;5.108;2022-10-31T03:20:50;14.75;;;9.75;;
12591;SDS011;6361;52.120;5.108;2022-10-31T03:23:37;16.00;;;9.52;;
12591;SDS011;6361;52.120;5.108;2022-10-31T03:26:03;16.70;;;9.98;;
12591;SDS011;6361;52.120;5.108;2022-10-31T03:28:31;19.83;;;10.77;;
12591;SDS011;6361;52.120;5.108;2022-10-31T03:31:01;18.02;;;11.82;;
12591;SDS011;6361;52.120;5.108;2022-10-31T03:33:28;18.40;;;11.85;;
12591;SDS011;6361;52.120;5.108;2022-10-31T03:35:57;19.77;;;12.13;;
12591;SDS011;6361;52.120;5.108;2022-10-31T03:38:25;22.63;;;12.95;;
12591;SDS011;6361;52.120;5.108;2022-10-31T03:40:51;22.30;;;12.82;;
12591;SDS011;6361;52.120;5.108;2022-10-31T03:43:18;20.48;;;12.93;;
12591;SDS011;6361;52.120;5.108;2022-10-31T03:45:47;24.30;;;14.40;;
12591;SDS011;6361;52.120;5.108;2022-10-31T03:48:12;22.60;;;14.10;;
12591;SDS011;6361;52.120;5.108;2022-10-31T03:50:42;23.60;;;14.60;;
12591;SDS011;6361;52.120;5.108;2022-10-31T03:53:20;22.17;;;14.25;;
12591;SDS011;6361;52.120;5.108;2022-10-31T03:55:52;26.67;;;14.73;;
12591;SDS011;6361;52.120;5.108;2022-10-31T03:58:29;22.35;;;14.52;;
12591;SDS011;6361;52.120;5.108;2022-10-31T04:00:58;22.52;;;14.60;;
12591;SDS011;6361;52.120;5.108;2022-10-31T04:03:26;21.35;;;14.48;;
12591;SDS011;6361;52.120;5.108;2022-10-31T04:05:54;22.15;;;13.68;;
12591;SDS011;6361;52.120;5.108;2022-10-31T04:08:21;23.33;;;14.35;;
12591;SDS011;6361;52.120;5.108;2022-10-31T04:10:49;23.23;;;14.27;;
12591;SDS011;6361;52.120;5.108;2022-10-31T04:13:17;24.38;;;14.20;;
12591;SDS011;6361;52.120;5.108;2022-10-31T04:15:45;21.90;;;14.23;;
12591;SDS011;6361;52.120;5.108;2022-10-31T04:18:11;22.52;;;14.88;;
12591;SDS011;6361;52.120;5.108;2022-10-31T04:20:38;24.38;;;14.50;;
12591;SDS011;6361;52.120;5.108;2022-10-31T04:23:05;26.70;;;15.13;;
12591;SDS011;6361;52.120;5.108;2022-10-31T04:25:39;24.40;;;14.82;;
12591;SDS011;6361;52.120;5.108;2022-10-31T04:28:04;21.42;;;14.95;;
12591;SDS011;6361;52.120;5.108;2022-10-31T04:30:29;23.73;;;13.55;;
12591;SDS011;6361;52.120;5.108;2022-10-31T04:32:55;23.88;;;15.48;;
12591;SDS011;6361;52.120;5.108;2022-10-31T04:35:20;21.13;;;15.02;;
12591;SDS011;6361;52.120;5.108;2022-10-31T04:37:45;25.88;;;15.57;;
12591;SDS011;6361;52.120;5.108;2022-10-31T04:40:11;24.40;;;15.13;;
12591;SDS011;6361;52.120;5.108;2022-10-31T04:42:36;25.48;;;15.95;;
12591;SDS011;6361;52.120;5.108;2022-10-31T04:45:02;23.63;;;16.60;;
12591;SDS011;6361;52.120;5.108;2022-10-31T04:47:27;25.98;;;15.88;;
12591;SDS011;6361;52.120;5.108;2022-10-31T04:49:56;22.98;;;15.65;;
12591;SDS011;6361;52.120;5.108;2022-10-31T04:52:21;24.65;;;15.35;;
12591;SDS011;6361;52.120;5.108;2022-10-31T04:54:47;23.83;;;15.13;;
12591;SDS011;6361;52.120;5.108;2022-10-31T04:57:12;23.63;;;15.90;;
12591;SDS011;6361;52.120;5.108;2022-10-31T04:59:37;23.98;;;15.30;;
12591;SDS011;6361;52.120;5.108;2022-10-31T05:02:03;23.38;;;15.43;;
12591;SDS011;6361;52.120;5.108;2022-10-31T05:04:28;22.60;;;14.70;;
12591;SDS011;6361;52.120;5.108;2022-10-31T05:06:53;23.33;;;14.73;;
12591;SDS011;6361;52.120;5.108;2022-10-31T05:09:19;24.25;;;16.00;;
12591;SDS011;6361;52.120;5.108;2022-10-31T05:11:44;22.35;;;15.50;;
12591;SDS011;6361;52.120;5.108;2022-10-31T05:14:09;25.63;;;16.05;;
12591;SDS011;6361;52.120;5.108;2022-10-31T05:16:35;24.25;;;15.43;;
12591;SDS011;6361;52.120;5.108;2022-10-31T05:19:00;24.42;;;16.10;;
12591;SDS011;6361;52.120;5.108;2022-10-31T05:21:25;20.92;;;15.40;;
12591;SDS011;6361;52.120;5.108;2022-10-31T05:23:51;21.85;;;14.45;;
12591;SDS011;6361;52.120;5.108;2022-10-31T05:26:17;18.73;;;12.07;;
12591;SDS011;6361;52.120;5.108;2022-10-31T05:28:42;23.35;;;15.23;;
12591;SDS011;6361;52.120;5.108;2022-10-31T05:31:07;18.13;;;13.00;;
12591;SDS011;6361;52.120;5.108;2022-10-31T05:33:33;22.73;;;15.20;;
12591;SDS011;6361;52.120;5.108;2022-10-31T05:35:58;21.02;;;14.82;;
12591;SDS011;6361;52.120;5.108;2022-10-31T05:38:23;22.63;;;15.05;;
12591;SDS011;6361;52.120;5.108;2022-10-31T05:40:49;22.77;;;15.27;;
12591;SDS011;6361;52.120;5.108;2022-10-31T05:43:14;19.20;;;13.20;;
12591;SDS011;6361;52.120;5.108;2022-10-31T05:45:39;22.05;;;13.95;;
12591;SDS011;6361;52.120;5.108;2022-10-31T05:48:05;19.40;;;13.23;;
12591;SDS011;6361;52.120;5.108;2022-10-31T05:50:31;24.58;;;13.75;;
12591;SDS011;6361;52.120;5.108;2022-10-31T05:52:57;20.85;;;14.15;;
12591;SDS011;6361;52.120;5.108;2022-10-31T05:55:23;21.50;;;13.98;;
12591;SDS011;6361;52.120;5.108;2022-10-31T05:57:49;21.00;;;14.70;;
12591;SDS011;6361;52.120;5.108;2022-10-31T06:00:15;22.55;;;15.00;;
12591;SDS011;6361;52.120;5.108;2022-10-31T06:02:40;23.70;;;15.60;;
12591;SDS011;6361;52.120;5.108;2022-10-31T06:05:05;25.08;;;15.05;;
12591;SDS011;6361;52.120;5.108;2022-10-31T06:07:31;30.55;;;16.15;;
12591;SDS011;6361;52.120;5.108;2022-10-31T06:09:58;25.17;;;15.70;;
12591;SDS011;6361;52.120;5.108;2022-10-31T06:12:23;25.23;;;15.98;;
12591;SDS011;6361;52.120;5.108;2022-10-31T06:14:48;24.98;;;15.75;;
12591;SDS011;6361;52.120;5.108;2022-10-31T06:17:14;27.75;;;16.38;;
12591;SDS011;6361;52.120;5.108;2022-10-31T06:19:39;28.00;;;16.40;;
12591;SDS011;6361;52.120;5.108;2022-10-31T06:22:05;23.92;;;16.65;;
12591;SDS011;6361;52.120;5.108;2022-10-31T06:24:30;31.90;;;18.52;;
12591;SDS011;6361;52.120;5.108;2022-10-31T06:26:55;33.58;;;20.55;;
12591;SDS011;6361;52.120;5.108;2022-10-31T06:29:21;40.47;;;20.83;;
12591;SDS011;6361;52.120;5.108;2022-10-31T06:31:46;49.13;;;21.08;;
12591;SDS011;6361;52.120;5.108;2022-10-31T06:34:11;38.88;;;21.88;;
12591;SDS011;6361;52.120;5.108;2022-10-31T06:36:37;38.58;;;21.15;;
12591;SDS011;6361;52.120;5.108;2022-10-31T06:39:02;38.95;;;20.60;;
12591;SDS011;6361;52.120;5.108;2022-10-31T06:41:27;40.67;;;20.60;;
12591;SDS011;6361;52.120;5.108;2022-10-31T06:43:53;42.13;;;20.98;;
12591;SDS011;6361;52.120;5.108;2022-10-31T06:46:18;42.35;;;20.67;;
12591;SDS011;6361;52.120;5.108;2022-10-31T06:48:43;41.40;;;21.08;;
12591;SDS011;6361;52.120;5.108;2022-10-31T06:51:09;35.05;;;19.33;;
12591;SDS011;6361;52.120;5.108;2022-10-31T06:53:34;38.03;;;19.85;;
12591;SDS011;6361;52.120;5.108;2022-10-31T06:55:59;44.67;;;20.65;;
12591;SDS011;6361;52.120;5.108;2022-10-31T06:58:25;35.88;;;20.20;;
12591;SDS011;6361;52.120;5.108;2022-10-31T07:00:50;34.17;;;20.55;;
12591;SDS011;6361;52.120;5.108;2022-10-31T07:03:16;32.78;;;18.75;;
12591;SDS011;6361;52.120;5.108;2022-10-31T07:05:41;39.08;;;20.60;;
12591;SDS011;6361;52.120;5.108;2022-10-31T07:08:08;40.38;;;21.13;;
12591;SDS011;6361;52.120;5.108;2022-10-31T07:10:36;36.05;;;20.70;;
12591;SDS011;6361;52.120;5.108;2022-10-31T07:13:03;36.78;;;20.05;;
12591;SDS011;6361;52.120;5.108;2022-10-31T07:15:32;32.08;;;19.50;;
12591;SDS011;6361;52.120;5.108;2022-10-31T07:17:59;32.78;;;20.23;;
12591;SDS011;6361;52.120;5.108;2022-10-31T07:20:28;37.85;;;19.95;;
12591;SDS011;6361;52.120;5.108;2022-10-31T07:22:54;31.27;;;20.17;;
12591;SDS011;6361;52.120;5.108;2022-10-31T07:25:20;31.58;;;19.35;;
12591;SDS011;6361;52.120;5.108;2022-10-31T07:27:45;34.47;;;20.63;;
12591;SDS011;6361;52.120;5.108;2022-10-31T07:30:11;32.30;;;19.58;;
12591;SDS011;6361;52.120;5.108;2022-10-31T07:32:38;32.17;;;19.77;;
12591;SDS011;6361;52.120;5.108;2022-10-31T07:35:07;33.38;;;19.52;;
12591;SDS011;6361;52.120;5.108;2022-10-31T07:37:33;31.00;;;19.08;;
12591;SDS011;6361;52.120;5.108;2022-10-31T07:39:59;32.85;;;19.63;;
12591;SDS011;6361;52.120;5.108;2022-10-31T07:42:24;33.13;;;19.10;;
12591;SDS011;6361;52.120;5.108;2022-10-31T07:44:49;30.95;;;18.85;;
12591;SDS011;6361;52.120;5.108;2022-10-31T07:47:15;24.23;;;14.73;;
12591;SDS011;6361;52.120;5.108;2022-10-31T07:49:40;30.67;;;18.65;;
12591;SDS011;6361;52.120;5.108;2022-10-31T07:52:05;27.30;;;17.00;;
12591;SDS011;6361;52.120;5.108;2022-10-31T07:54:31;31.50;;;18.55;;
12591;SDS011;6361;52.120;5.108;2022-10-31T07:56:56;28.83;;;17.60;;
12591;SDS011;6361;52.120;5.108;2022-10-31T07:59:21;31.35;;;17.52;;
12591;SDS011;6361;52.120;5.108;2022-10-31T08:01:47;27.65;;;18.38;;
12591;SDS011;6361;52.120;5.108;2022-10-31T08:04:12;32.15;;;18.48;;
12591;SDS011;6361;52.120;5.108;2022-10-31T08:06:37;26.25;;;17.42;;
12591;SDS011;6361;52.120;5.108;2022-10-31T08:09:03;30.48;;;18.23;;
12591;SDS011;6361;52.120;5.108;2022-10-31T08:11:28;31.08;;;18.52;;
12591;SDS011;6361;52.120;5.108;2022-10-31T08:13:54;33.15;;;18.80;;
12591;SDS011;6361;52.120;5.108;2022-10-31T08:16:19;29.17;;;18.38;;
12591;SDS011;6361;52.120;5.108;2022-10-31T08:18:44;31.65;;;19.42;;
12591;SDS011;6361;52.120;5.108;2022-10-31T08:21:10;28.65;;;18.10;;
12591;SDS011;6361;52.120;5.108;2022-10-31T08:23:35;28.08;;;18.75;;
12591;SDS011;6361;52.120;5.108;2022-10-31T08:26:00;29.98;;;17.92;;
12591;SDS011;6361;52.120;5.108;2022-10-31T08:28:26;27.90;;;17.95;;
12591;SDS011;6361;52.120;5.108;2022-10-31T08:30:51;27.48;;;17.83;;
12591;SDS011;6361;52.120;5.108;2022-10-31T08:33:17;28.13;;;18.52;;
12591;SDS011;6361;52.120;5.108;2022-10-31T08:35:43;27.20;;;17.50;;
12591;SDS011;6361;52.120;5.108;2022-10-31T08:38:10;24.90;;;17.58;;
12591;SDS011;6361;52.120;5.108;2022-10-31T08:40:36;22.25;;;14.45;;
12591;SDS011;6361;52.120;5.108;2022-10-31T08:43:14;27.45;;;16.88;;
12591;SDS011;6361;52.120;5.108;2022-10-31T08:45:40;32.58;;;16.67;;
12591;SDS011;6361;52.120;5.108;2022-10-31T08:48:08;26.33;;;16.77;;
12591;SDS011;6361;52.120;5.108;2022-10-31T08:50:35;25.30;;;15.80;;
12591;SDS011;6361;52.120;5.108;2022-10-31T08:53:05;25.35;;;17.08;;
12591;SDS011;6361;52.120;5.108;2022-10-31T08:55:32;24.17;;;16.20;;
12591;SDS011;6361;52.120;5.108;2022-10-31T08:57:58;27.00;;;16.75;;
12591;SDS011;6361;52.120;5.108;2022-10-31T09:00:23;21.27;;;14.93;;
12591;SDS011;6361;52.120;5.108;2022-10-31T09:02:58;26.67;;;17.55;;
12591;SDS011;6361;52.120;5.108;2022-10-31T09:05:25;29.75;;;17.85;;
12591;SDS011;6361;52.120;5.108;2022-10-31T09:07:51;29.27;;;18.02;;
12591;SDS011;6361;52.120;5.108;2022-10-31T09:10:16;28.88;;;18.05;;
12591;SDS011;6361;52.120;5.108;2022-10-31T09:12:41;27.38;;;18.00;;
12591;SDS011;6361;52.120;5.108;2022-10-31T09:15:07;32.28;;;18.30;;
12591;SDS011;6361;52.120;5.108;2022-10-31T09:17:33;32.08;;;19.70;;
12591;SDS011;6361;52.120;5.108;2022-10-31T09:19:58;30.27;;;19.20;;
12591;SDS011;6361;52.120;5.108;2022-10-31T09:22:24;32.38;;;19.95;;
12591;SDS011;6361;52.120;5.108;2022-10-31T09:24:49;30.95;;;20.55;;
12591;SDS011;6361;52.120;5.108;2022-10-31T09:27:14;29.80;;;18.88;;
12591;SDS011;6361;52.120;5.108;2022-10-31T09:29:40;29.90;;;19.88;;
12591;SDS011;6361;52.120;5.108;2022-10-31T09:32:06;29.35;;;20.33;;
12591;SDS011;6361;52.120;5.108;2022-10-31T09:34:31;31.00;;;19.15;;
12591;SDS011;6361;52.120;5.108;2022-10-31T09:36:56;32.08;;;20.58;;
12591;SDS011;6361;52.120;5.108;2022-10-31T09:39:22;32.35;;;20.20;;
12591;SDS011;6361;52.120;5.108;2022-10-31T09:50:25;35.55;;;21.60;;
12591;SDS011;6361;52.120;5.108;2022-10-31T09:53:02;35.50;;;22.42;;
12591;SDS011;6361;52.120;5.108;2022-10-31T09:55:36;37.53;;;22.25;;
12591;SDS011;6361;52.120;5.108;2022-10-31T09:58:04;35.47;;;21.40;;
12591;SDS011;6361;52.120;5.108;2022-10-31T10:00:30;33.38;;;22.20;;
12591;SDS011;6361;52.120;5.108;2022-10-31T10:05:56;38.42;;;22.98;;
12591;SDS011;6361;52.120;5.108;2022-10-31T10:08:29;36.00;;;22.83;;
12591;SDS011;6361;52.120;5.108;2022-10-31T10:16:57;35.38;;;22.13;;
12591;SDS011;6361;52.120;5.108;2022-10-31T10:22:32;34.55;;;19.95;;
12591;SDS011;6361;52.120;5.108;2022-10-31T10:27:46;32.50;;;19.88;;
12591;SDS011;6361;52.120;5.108;2022-10-31T10:33:01;32.08;;;19.73;;
12591;SDS011;6361;52.120;5.108;2022-10-31T10:35:33;29.73;;;18.85;;
12591;SDS011;6361;52.120;5.108;2022-10-31T10:40:37;26.65;;;17.38;;
12591;SDS011;6361;52.120;5.108;2022-10-31T10:43:22;31.60;;;18.58;;
12591;SDS011;6361;52.120;5.108;2022-10-31T10:49:04;29.00;;;18.73;;
12591;SDS011;6361;52.120;5.108;2022-10-31T10:54:41;29.27;;;18.40;;
12591;SDS011;6361;52.120;5.108;2022-10-31T10:57:19;30.55;;;17.38;;
12591;SDS011;6361;52.120;5.108;2022-10-31T10:59:47;30.58;;;18.23;;
12591;SDS011;6361;52.120;5.108;2022-10-31T11:02:17;29.10;;;17.85;;
12591;SDS011;6361;52.120;5.108;2022-10-31T11:04:45;29.42;;;18.05;;
12591;SDS011;6361;52.120;5.108;2022-10-31T11:07:16;26.48;;;18.42;;
12591;SDS011;6361;52.120;5.108;2022-10-31T11:09:41;31.05;;;19.30;;
12591;SDS011;6361;52.120;5.108;2022-10-31T11:12:11;27.95;;;18.25;;
12591;SDS011;6361;52.120;5.108;2022-10-31T11:14:57;28.13;;;19.02;;
12591;SDS011;6361;52.120;5.108;2022-10-31T11:17:38;30.67;;;18.98;;
12591;SDS011;6361;52.120;5.108;2022-10-31T11:20:26;31.92;;;18.13;;
12591;SDS011;6361;52.120;5.108;2022-10-31T11:23:00;28.80;;;18.58;;
12591;SDS011;6361;52.120;5.108;2022-10-31T11:25:27;29.30;;;18.45;;
12591;SDS011;6361;52.120;5.108;2022-10-31T11:28:03;31.45;;;19.42;;
12591;SDS011;6361;52.120;5.108;2022-10-31T11:30:36;28.92;;;19.10;;
12591;SDS011;6361;52.120;5.108;2022-10-31T11:33:28;33.35;;;20.75;;
12591;SDS011;6361;52.120;5.108;2022-10-31T11:35:55;29.42;;;19.15;;
12591;SDS011;6361;52.120;5.108;2022-10-31T11:38:22;32.35;;;20.95;;
12591;SDS011;6361;52.120;5.108;2022-10-31T11:43:22;33.72;;;21.55;;
12591;SDS011;6361;52.120;5.108;2022-10-31T11:45:48;36.38;;;23.02;;
12591;SDS011;6361;52.120;5.108;2022-10-31T11:48:15;39.45;;;23.42;;
12591;SDS011;6361;52.120;5.108;2022-10-31T11:50:42;39.22;;;23.83;;
12591;SDS011;6361;52.120;5.108;2022-10-31T11:53:25;41.28;;;23.58;;
12591;SDS011;6361;52.120;5.108;2022-10-31T11:56:25;44.80;;;24.25;;
12591;SDS011;6361;52.120;5.108;2022-10-31T11:58:54;43.05;;;24.40;;
12591;SDS011;6361;52.120;5.108;2022-10-31T12:01:25;46.83;;;25.75;;
12591;SDS011;6361;52.120;5.108;2022-10-31T12:04:08;45.67;;;25.25;;
12591;SDS011;6361;52.120;5.108;2022-10-31T12:06:35;43.22;;;25.23;;
12591;SDS011;6361;52.120;5.108;2022-10-31T12:09:07;45.22;;;25.45;;
12591;SDS011;6361;52.120;5.108;2022-10-31T12:11:43;50.78;;;25.05;;
12591;SDS011;6361;52.120;5.108;2022-10-31T12:17:19;51.75;;;27.45;;
12591;SDS011;6361;52.120;5.108;2022-10-31T12:25:20;49.92;;;25.92;;
12591;SDS011;6361;52.120;5.108;2022-10-31T12:28:00;47.17;;;26.30;;
12591;SDS011;6361;52.120;5.108;2022-10-31T12:30:51;49.33;;;25.58;;
12591;SDS011;6361;52.120;5.108;2022-10-31T12:33:45;43.35;;;24.95;;
12591;SDS011;6361;52.120;5.108;2022-10-31T12:36:21;49.60;;;25.95;;
12591;SDS011;6361;52.120;5.108;2022-10-31T12:44:11;51.88;;;26.70;;
12591;SDS011;6361;52.120;5.108;2022-10-31T12:54:56;50.47;;;26.80;;
12591;SDS011;6361;52.120;5.108;2022-10-31T13:00:20;51.97;;;26.45;;
12591;SDS011;6361;52.120;5.108;2022-10-31T13:02:53;53.90;;;27.80;;
12591;SDS011;6361;52.120;5.108;2022-10-31T13:05:36;51.42;;;25.85;;
12591;SDS011;6361;52.120;5.108;2022-10-31T13:13:02;52.63;;;27.33;;
12591;SDS011;6361;52.120;5.108;2022-10-31T13:16:09;54.47;;;26.88;;
12591;SDS011;6361;52.120;5.108;2022-10-31T13:21:30;56.10;;;27.38;;
12591;SDS011;6361;52.120;5.108;2022-10-31T13:24:00;54.38;;;26.58;;
12591;SDS011;6361;52.120;5.108;2022-10-31T13:26:40;51.05;;;26.95;;
12591;SDS011;6361;52.120;5.108;2022-10-31T13:31:43;54.20;;;26.70;;
12591;SDS011;6361;52.120;5.108;2022-10-31T13:34:11;53.85;;;27.20;;
12591;SDS011;6361;52.120;5.108;2022-10-31T13:39:38;54.55;;;26.05;;
12591;SDS011;6361;52.120;5.108;2022-10-31T13:42:22;45.72;;;25.50;;
12591;SDS011;6361;52.120;5.108;2022-10-31T13:44:55;52.25;;;26.25;;
12591;SDS011;6361;52.120;5.108;2022-10-31T13:47:25;51.63;;;25.33;;
12591;SDS011;6361;52.120;5.108;2022-10-31T13:55:45;50.00;;;24.05;;
12591;SDS011;6361;52.120;5.108;2022-10-31T13:58:25;48.47;;;24.17;;
12591;SDS011;6361;52.120;5.108;2022-10-31T14:03:25;46.83;;;24.30;;
12591;SDS011;6361;52.120;5.108;2022-10-31T14:05:54;45.80;;;24.27;;
12591;SDS011;6361;52.120;5.108;2022-10-31T14:08:20;49.17;;;25.08;;
12591;SDS011;6361;52.120;5.108;2022-10-31T14:10:48;49.75;;;27.77;;
12591;SDS011;6361;52.120;5.108;2022-10-31T14:13:20;55.45;;;29.17;;
12591;SDS011;6361;52.120;5.108;2022-10-31T14:18:48;48.22;;;26.08;;
12591;SDS011;6361;52.120;5.108;2022-10-31T14:23:50;53.35;;;27.98;;
12591;SDS011;6361;52.120;5.108;2022-10-31T14:28:48;42.90;;;22.42;;
12591;SDS011;6361;52.120;5.108;2022-10-31T14:31:31;52.95;;;27.90;;
12591;SDS011;6361;52.120;5.108;2022-10-31T14:33:59;52.33;;;29.67;;
12591;SDS011;6361;52.120;5.108;2022-10-31T14:39:50;55.00;;;28.77;;
12591;SDS011;6361;52.120;5.108;2022-10-31T14:50:48;57.90;;;26.73;;
12591;SDS011;6361;52.120;5.108;2022-10-31T14:55:54;48.38;;;27.70;;
12591;SDS011;6361;52.120;5.108;2022-10-31T14:58:21;49.92;;;27.65;;
12591;SDS011;6361;52.120;5.108;2022-10-31T15:00:50;49.25;;;26.30;;
12591;SDS011;6361;52.120;5.108;2022-10-31T15:03:22;53.47;;;26.33;;
12591;SDS011;6361;52.120;5.108;2022-10-31T15:05:49;43.75;;;24.48;;
12591;SDS011;6361;52.120;5.108;2022-10-31T15:11:21;48.30;;;25.27;;
12591;SDS011;6361;52.120;5.108;2022-10-31T15:13:48;44.67;;;24.80;;
12591;SDS011;6361;52.120;5.108;2022-10-31T15:16:20;51.33;;;26.33;;
12591;SDS011;6361;52.120;5.108;2022-10-31T15:18:48;50.75;;;26.02;;
12591;SDS011;6361;52.120;5.108;2022-10-31T15:21:17;49.10;;;24.17;;
12591;SDS011;6361;52.120;5.108;2022-10-31T15:23:43;48.10;;;24.45;;
12591;SDS011;6361;52.120;5.108;2022-10-31T15:26:18;46.60;;;25.02;;
12591;SDS011;6361;52.120;5.108;2022-10-31T15:28:45;47.28;;;24.02;;
12591;SDS011;6361;52.120;5.108;2022-10-31T15:31:17;51.22;;;25.10;;
12591;SDS011;6361;52.120;5.108;2022-10-31T15:33:44;50.30;;;24.48;;
12591;SDS011;6361;52.120;5.108;2022-10-31T15:36:18;53.70;;;26.23;;
12591;SDS011;6361;52.120;5.108;2022-10-31T15:38:45;45.03;;;23.60;;
12591;SDS011;6361;52.120;5.108;2022-10-31T15:41:24;44.13;;;24.45;;
12591;SDS011;6361;52.120;5.108;2022-10-31T15:43:52;49.53;;;25.30;;
12591;SDS011;6361;52.120;5.108;2022-10-31T15:46:19;51.53;;;25.63;;
12591;SDS011;6361;52.120;5.108;2022-10-31T15:48:44;43.45;;;23.65;;
12591;SDS011;6361;52.120;5.108;2022-10-31T15:51:11;54.97;;;28.48;;
12591;SDS011;6361;52.120;5.108;2022-10-31T15:56:06;47.38;;;24.55;;
12591;SDS011;6361;52.120;5.108;2022-10-31T15:58:33;54.05;;;25.35;;
12591;SDS011;6361;52.120;5.108;2022-10-31T16:01:18;51.22;;;24.88;;
12591;SDS011;6361;52.120;5.108;2022-10-31T16:03:44;51.63;;;25.48;;
12591;SDS011;6361;52.120;5.108;2022-10-31T16:06:31;45.65;;;23.67;;
12591;SDS011;6361;52.120;5.108;2022-10-31T16:08:57;54.28;;;25.77;;
12591;SDS011;6361;52.120;5.108;2022-10-31T16:11:24;52.00;;;25.10;;
12591;SDS011;6361;52.120;5.108;2022-10-31T16:16:20;49.58;;;26.17;;
12591;SDS011;6361;52.120;5.108;2022-10-31T16:18:46;48.40;;;25.05;;
12591;SDS011;6361;52.120;5.108;2022-10-31T16:21:13;56.03;;;25.63;;
12591;SDS011;6361;52.120;5.108;2022-10-31T16:23:39;57.53;;;26.88;;
12591;SDS011;6361;52.120;5.108;2022-10-31T16:26:12;44.88;;;24.38;;
12591;SDS011;6361;52.120;5.108;2022-10-31T16:28:49;55.03;;;23.40;;
12591;SDS011;6361;52.120;5.108;2022-10-31T16:31:24;51.42;;;27.20;;
12591;SDS011;6361;52.120;5.108;2022-10-31T16:34:15;51.87;;;25.20;;
12591;SDS011;6361;52.120;5.108;2022-10-31T16:36:42;53.05;;;25.45;;
12591;SDS011;6361;52.120;5.108;2022-10-31T16:39:08;54.30;;;25.45;;
12591;SDS011;6361;52.120;5.108;2022-10-31T16:41:44;53.80;;;24.88;;
12591;SDS011;6361;52.120;5.108;2022-10-31T16:44:14;51.75;;;24.33;;
12591;SDS011;6361;52.120;5.108;2022-10-31T16:46:47;51.38;;;24.83;;
12591;SDS011;6361;52.120;5.108;2022-10-31T16:49:12;50.08;;;24.50;;
12591;SDS011;6361;52.120;5.108;2022-10-31T16:51:38;48.60;;;24.30;;
12591;SDS011;6361;52.120;5.108;2022-10-31T16:54:03;45.50;;;23.33;;
12591;SDS011;6361;52.120;5.108;2022-10-31T16:56:29;49.17;;;24.20;;
12591;SDS011;6361;52.120;5.108;2022-10-31T16:58:57;49.17;;;24.20;;
12591;SDS011;6361;52.120;5.108;2022-10-31T17:01:23;46.60;;;23.83;;
12591;SDS011;6361;52.120;5.108;2022-10-31T17:03:48;52.42;;;24.90;;
12591;SDS011;6361;52.120;5.108;2022-10-31T17:06:14;46.70;;;23.08;;
12591;SDS011;6361;52.120;5.108;2022-10-31T17:08:39;48.65;;;24.02;;
12591;SDS011;6361;52.120;5.108;2022-10-31T17:11:05;47.92;;;23.58;;
12591;SDS011;6361;52.120;5.108;2022-10-31T17:13:31;50.42;;;24.05;;